createdAt,value
2018-06-13T00:01:50.079Z,5.70
2018-06-13T00:04:18.986Z,5.20
2018-06-13T00:06:48.098Z,5.45
2018-06-13T00:09:17.212Z,5.20
2018-06-13T00:11:46.348Z,5.45
2018-06-13T00:14:15.521Z,4.90
2018-06-13T00:16:44.647Z,4.87
2018-06-13T00:19:13.747Z,5.95
2018-06-13T00:21:42.847Z,5.58
2018-06-13T00:24:11.986Z,5.62
2018-06-13T00:26:41.083Z,4.37
2018-06-13T00:29:10.191Z,5.22
2018-06-13T00:31:39.298Z,5.08
2018-06-13T00:34:08.415Z,4.95
2018-06-13T00:36:37.507Z,4.70
2018-06-13T00:39:07.297Z,4.90
2018-06-13T00:41:36.406Z,4.65
2018-06-13T00:44:05.546Z,5.00
2018-06-13T00:46:34.650Z,5.33
2018-06-13T00:49:03.755Z,4.78
2018-06-13T00:51:32.899Z,4.55
2018-06-13T00:54:02.001Z,5.05
2018-06-13T00:56:31.932Z,5.12
2018-06-13T00:59:01.047Z,4.62
2018-06-13T01:01:30.174Z,4.30
2018-06-13T01:03:59.267Z,5.15
2018-06-13T01:06:28.487Z,4.60
2018-06-13T01:08:57.577Z,3.98
2018-06-13T01:11:26.691Z,5.10
2018-06-13T01:13:55.775Z,4.55
2018-06-13T01:16:24.885Z,4.28
2018-06-13T01:18:53.984Z,4.35
2018-06-13T01:21:23.138Z,5.37
2018-06-13T01:23:52.243Z,4.92
2018-06-13T01:26:21.435Z,6.20
2018-06-13T01:28:50.548Z,4.60
2018-06-13T01:31:19.638Z,4.25
2018-06-13T01:33:48.743Z,4.50
2018-06-13T01:36:17.902Z,4.58
2018-06-13T01:38:47.006Z,4.60
2018-06-13T01:41:20.351Z,4.00
2018-06-13T01:43:49.443Z,5.15
2018-06-13T01:46:18.528Z,4.72
2018-06-13T01:48:47.630Z,4.00
2018-06-13T01:51:16.745Z,3.77
2018-06-13T01:53:45.853Z,4.58
2018-06-13T01:56:14.939Z,4.30
2018-06-13T01:58:44.043Z,4.75
2018-06-13T02:01:13.162Z,4.90
2018-06-13T02:03:42.243Z,4.20
2018-06-13T02:06:11.343Z,4.28
2018-06-13T02:08:40.425Z,3.90
2018-06-13T02:11:09.182Z,4.45
2018-06-13T02:13:38.260Z,4.53
2018-06-13T02:16:07.532Z,4.70
2018-06-13T02:18:36.619Z,4.67
2018-06-13T02:21:05.763Z,4.58
2018-06-13T02:23:34.861Z,4.90
2018-06-13T02:26:04.009Z,4.83
2018-06-13T02:28:33.103Z,4.28
2018-06-13T02:31:02.208Z,4.70
2018-06-13T02:33:31.316Z,4.30
2018-06-13T02:36:00.394Z,4.70
2018-06-13T02:38:29.520Z,4.20
2018-06-13T02:40:58.603Z,4.05
2018-06-13T02:43:27.727Z,4.40
2018-06-13T02:45:56.796Z,4.28
2018-06-13T02:48:25.905Z,4.22
2018-06-13T02:50:54.984Z,4.58
2018-06-13T02:53:24.075Z,3.90
2018-06-13T02:55:53.167Z,4.40
2018-06-13T02:58:22.292Z,4.37
2018-06-13T03:00:51.771Z,3.60
2018-06-13T03:03:20.875Z,5.42
2018-06-13T03:05:49.972Z,4.05
2018-06-13T03:08:19.090Z,4.17
2018-06-13T03:10:48.200Z,3.52
2018-06-13T03:13:17.275Z,5.00
2018-06-13T03:15:46.375Z,3.70
2018-06-13T03:18:15.467Z,3.92
2018-06-13T03:20:44.571Z,3.55
2018-06-13T03:23:13.646Z,3.67
2018-06-13T03:25:43.136Z,3.75
2018-06-13T03:28:12.231Z,3.55
2018-06-13T03:30:40.954Z,4.30
2018-06-13T03:33:09.978Z,4.30
2018-06-13T03:35:41.095Z,4.83
2018-06-13T03:38:10.194Z,5.00
2018-06-13T03:40:38.918Z,4.95
2018-06-13T03:43:07.951Z,4.95
2018-06-13T03:45:37.042Z,5.12
2018-06-13T03:48:06.191Z,5.33
2018-06-13T03:50:35.307Z,5.30
2018-06-13T03:53:04.411Z,5.65
2018-06-13T03:55:33.535Z,4.60
2018-06-13T03:58:02.612Z,4.20
2018-06-13T04:00:31.768Z,4.83
2018-06-13T04:03:00.492Z,4.60
2018-06-13T04:05:29.499Z,4.20
2018-06-13T04:07:58.609Z,4.62
2018-06-13T04:10:27.719Z,3.85
2018-06-13T04:12:56.831Z,4.20
2018-06-13T04:15:25.919Z,3.87
2018-06-13T04:17:55.023Z,4.10
2018-06-13T04:20:24.107Z,3.95
2018-06-13T04:22:53.202Z,3.90
2018-06-13T04:25:22.332Z,5.15
2018-06-13T04:27:51.086Z,4.78
2018-06-13T04:30:20.099Z,4.45
2018-06-13T04:32:49.230Z,4.47
2018-06-13T04:35:18.299Z,4.12
2018-06-13T04:37:47.399Z,4.37
2018-06-13T04:40:16.513Z,4.50
2018-06-13T04:42:45.768Z,4.37
2018-06-13T04:45:14.928Z,4.62
2018-06-13T04:47:44.044Z,4.50
2018-06-13T04:50:13.155Z,4.67
2018-06-13T04:52:42.239Z,3.92
2018-06-13T04:55:11.447Z,4.45
2018-06-13T04:57:40.579Z,4.60
2018-06-13T05:00:09.811Z,4.20
2018-06-13T05:02:38.928Z,4.70
2018-06-13T05:05:08.063Z,4.40
2018-06-13T05:07:37.166Z,4.97
2018-06-13T05:10:06.273Z,3.85
2018-06-13T05:12:35.395Z,3.65
2018-06-13T05:15:04.608Z,4.35
2018-06-13T05:17:33.716Z,3.30
2018-06-13T05:20:02.816Z,3.90
2018-06-13T05:22:31.915Z,3.65
2018-06-13T05:25:00.999Z,4.40
2018-06-13T05:27:30.107Z,4.15
2018-06-13T05:29:59.256Z,3.75
2018-06-13T05:32:28.355Z,3.85
2018-06-13T05:34:57.434Z,3.60
2018-06-13T05:37:26.550Z,4.00
2018-06-13T05:39:55.680Z,4.00
2018-06-13T05:42:24.749Z,4.30
2018-06-13T05:44:53.907Z,4.12
2018-06-13T05:47:23.004Z,4.15
2018-06-13T05:49:52.111Z,3.83
2018-06-13T05:52:21.348Z,4.08
2018-06-13T05:54:50.472Z,3.90
2018-06-13T05:57:19.551Z,3.25
2018-06-13T05:59:48.667Z,3.22
2018-06-13T06:02:17.795Z,3.90
2018-06-13T06:04:46.892Z,3.70
2018-06-13T06:07:15.987Z,4.22
2018-06-13T06:09:45.094Z,3.87
2018-06-13T06:12:13.936Z,3.60
2018-06-13T06:14:42.951Z,4.00
2018-06-13T06:17:12.159Z,3.98
2018-06-13T06:19:41.231Z,4.00
2018-06-13T06:22:10.359Z,3.70
2018-06-13T06:24:39.607Z,3.35
2018-06-13T06:27:08.727Z,4.08
2018-06-13T06:29:37.859Z,3.70
2018-06-13T06:32:06.998Z,4.60
2018-06-13T06:34:36.119Z,4.58
2018-06-13T06:37:05.283Z,3.72
2018-06-13T06:39:34.395Z,4.30
2018-06-13T06:42:03.564Z,5.00
2018-06-13T06:44:32.827Z,4.65
2018-06-13T06:47:01.947Z,4.35
2018-06-13T06:49:30.699Z,4.65
2018-06-13T06:51:59.695Z,3.80
2018-06-13T06:54:28.798Z,3.55
2018-06-13T06:56:57.874Z,4.03
2018-06-13T06:59:26.959Z,4.85
2018-06-13T07:01:56.083Z,5.50
2018-06-13T07:04:25.178Z,5.90
2018-06-13T07:06:54.271Z,6.12
2018-06-13T07:09:23.374Z,5.62
2018-06-13T07:11:52.459Z,5.75
2018-06-13T07:14:21.559Z,6.00
2018-06-13T07:16:50.703Z,6.45
2018-06-13T07:19:20.795Z,7.55
2018-06-13T07:21:49.905Z,7.53
2018-06-13T07:24:18.999Z,6.37
2018-06-13T07:26:48.167Z,6.92
2018-06-13T07:29:17.267Z,6.60
2018-06-13T07:31:46.362Z,7.35
2018-06-13T07:34:15.438Z,6.85
2018-06-13T07:36:44.547Z,7.33
2018-06-13T07:39:13.623Z,6.70
2018-06-13T07:41:42.807Z,7.05
2018-06-13T07:44:11.902Z,6.62
2018-06-13T07:46:41.014Z,7.58
2018-06-13T07:49:10.096Z,6.67
2018-06-13T07:51:39.200Z,6.40
2018-06-13T07:54:08.346Z,6.10
2018-06-13T07:56:37.539Z,6.05
2018-06-13T07:59:06.690Z,6.15
2018-06-13T08:01:35.837Z,4.97
2018-06-13T08:04:04.998Z,4.90
2018-06-13T08:06:34.096Z,5.20
2018-06-13T08:09:03.410Z,5.10
2018-06-13T08:11:32.511Z,5.00
2018-06-13T08:14:01.607Z,4.70
2018-06-13T08:16:30.683Z,5.20
2018-06-13T08:18:59.792Z,5.12
2018-06-13T08:21:28.867Z,4.53
2018-06-13T08:23:57.970Z,4.83
2018-06-13T08:26:27.091Z,5.25
2018-06-13T08:28:56.175Z,4.40
2018-06-13T08:31:25.303Z,4.40
2018-06-13T08:33:54.410Z,5.03
2018-06-13T08:36:23.541Z,3.80
2018-06-13T08:38:52.297Z,4.40
2018-06-13T08:41:21.299Z,3.55
2018-06-13T08:43:50.379Z,4.97
2018-06-13T08:46:19.495Z,4.35
2018-06-13T08:48:48.603Z,3.58
2018-06-13T08:51:17.715Z,4.15
2018-06-13T08:53:46.813Z,4.10
2018-06-13T08:56:15.894Z,4.50
2018-06-13T08:58:44.987Z,4.10
2018-06-13T09:01:14.066Z,3.40
2018-06-13T09:03:43.158Z,3.62
2018-06-13T09:06:12.331Z,3.35
2018-06-13T09:08:41.447Z,2.70
2018-06-13T09:11:10.539Z,3.60
2018-06-13T09:13:39.696Z,2.77
2018-06-13T09:16:08.791Z,3.83
2018-06-13T09:18:37.898Z,3.62
2018-06-13T09:21:07.079Z,3.87
2018-06-13T09:23:36.171Z,3.98
2018-06-13T09:26:05.308Z,4.65
2018-06-13T09:28:34.414Z,3.55
2018-06-13T09:31:03.739Z,3.80
2018-06-13T09:33:32.831Z,3.98
2018-06-13T09:36:01.576Z,4.00
2018-06-13T09:38:30.595Z,4.20
2018-06-13T09:40:59.702Z,3.55
2018-06-13T09:43:28.876Z,4.05
2018-06-13T09:46:03.399Z,4.25
2018-06-13T09:48:27.203Z,3.65
2018-06-13T09:50:56.422Z,4.00
2018-06-13T09:53:25.520Z,3.77
2018-06-13T09:55:54.611Z,3.50
2018-06-13T09:58:23.793Z,3.33
2018-06-13T10:00:58.163Z,2.85
2018-06-13T10:03:27.270Z,3.37
2018-06-13T10:05:56.359Z,3.27
2018-06-13T10:08:25.448Z,3.70
2018-06-13T10:10:54.538Z,3.50
2018-06-13T10:13:23.635Z,3.50
2018-06-13T10:15:52.767Z,3.60
2018-06-13T10:18:21.859Z,3.37
2018-06-13T10:20:51.016Z,2.87
2018-06-13T10:23:20.116Z,3.22
2018-06-13T10:25:49.371Z,3.20
2018-06-13T10:28:18.465Z,3.17
2018-06-13T10:30:47.567Z,2.83
2018-06-13T10:33:16.664Z,2.80
2018-06-13T10:35:45.771Z,3.05
2018-06-13T10:38:14.926Z,3.10
2018-06-13T10:40:43.986Z,3.42
2018-06-13T10:43:13.090Z,2.90
2018-06-13T10:45:42.176Z,3.50
2018-06-13T10:48:11.270Z,2.98
2018-06-13T10:50:40.456Z,3.00
2018-06-13T10:53:09.578Z,2.92
2018-06-13T10:55:38.709Z,2.92
2018-06-13T10:58:07.887Z,3.47
2018-06-13T11:00:36.986Z,3.08
2018-06-13T11:03:06.119Z,2.90
2018-06-13T11:05:35.223Z,3.20
2018-06-13T11:08:04.351Z,2.50
2018-06-13T11:10:33.444Z,3.20
2018-06-13T11:13:02.560Z,2.47
2018-06-13T11:15:31.658Z,2.80
2018-06-13T11:18:00.750Z,3.05
2018-06-13T11:20:29.877Z,2.92
2018-06-13T11:22:59.151Z,3.47
2018-06-13T11:25:28.226Z,3.45
2018-06-13T11:27:57.327Z,2.60
2018-06-13T11:30:27.414Z,2.90
2018-06-13T11:32:56.540Z,2.77
2018-06-13T11:35:25.614Z,3.27
2018-06-13T11:37:54.723Z,2.80
2018-06-13T11:40:23.800Z,2.77
2018-06-13T11:42:52.940Z,2.85
2018-06-13T11:45:22.091Z,2.87
2018-06-13T11:47:51.207Z,3.33
2018-06-13T11:50:20.327Z,3.17
2018-06-13T11:52:49.453Z,2.92
2018-06-13T11:55:18.674Z,2.95
2018-06-13T11:57:47.811Z,2.35
2018-06-13T12:00:16.953Z,2.50
2018-06-13T12:02:46.030Z,3.15
2018-06-13T12:05:15.131Z,2.50
2018-06-13T12:07:44.239Z,2.60
2018-06-13T12:10:13.349Z,2.85
2018-06-13T12:12:42.446Z,2.75
2018-06-13T12:15:11.671Z,2.72
2018-06-13T12:17:40.899Z,2.30
2018-06-13T12:20:10.036Z,2.77
2018-06-13T12:22:39.284Z,2.50
2018-06-13T12:25:08.404Z,2.40
2018-06-13T12:27:37.507Z,2.47
2018-06-13T12:30:06.838Z,2.40
2018-06-13T12:32:35.971Z,2.50
2018-06-13T12:35:05.103Z,2.50
2018-06-13T12:37:34.371Z,2.27
2018-06-13T12:40:03.524Z,2.30
2018-06-13T12:42:32.650Z,1.95
2018-06-13T12:45:01.727Z,2.10
2018-06-13T12:47:30.864Z,2.75
2018-06-13T12:50:00.234Z,3.67
2018-06-13T12:52:29.349Z,2.92
2018-06-13T12:54:58.463Z,2.27
2018-06-13T12:57:27.552Z,2.67
2018-06-13T12:59:56.674Z,2.80
2018-06-13T13:02:25.994Z,2.30
2018-06-13T13:04:55.107Z,3.27
2018-06-13T13:07:24.191Z,2.92
2018-06-13T13:09:53.335Z,2.72
2018-06-13T13:12:22.458Z,2.60
2018-06-13T13:14:51.570Z,2.65
2018-06-13T13:17:20.663Z,2.80
2018-06-13T13:19:49.776Z,2.83
2018-06-13T13:22:18.898Z,2.85
2018-06-13T13:24:48.014Z,3.08
2018-06-13T13:27:17.143Z,2.30
2018-06-13T13:29:46.238Z,2.60
2018-06-13T13:32:15.376Z,2.40
2018-06-13T13:34:44.612Z,2.65
2018-06-13T13:37:13.731Z,3.60
2018-06-13T13:39:42.833Z,2.77
2018-06-13T13:42:11.939Z,2.30
2018-06-13T13:44:41.073Z,2.67
2018-06-13T13:47:10.218Z,2.47
2018-06-13T13:49:39.334Z,2.37
2018-06-13T13:52:08.459Z,2.33
2018-06-13T13:54:37.703Z,2.00
2018-06-13T13:57:06.995Z,2.45
2018-06-13T13:59:36.227Z,2.20
2018-06-13T14:02:05.415Z,2.72
2018-06-13T14:04:34.531Z,2.30
2018-06-13T14:07:04.120Z,2.20
2018-06-13T14:09:33.269Z,2.62
2018-06-13T14:12:02.407Z,2.70
2018-06-13T14:14:31.511Z,2.50
2018-06-13T14:17:00.618Z,2.75
2018-06-13T14:19:29.748Z,2.22
2018-06-13T14:21:58.982Z,2.27
2018-06-13T14:24:28.062Z,2.30
2018-06-13T14:26:57.323Z,3.25
2018-06-13T14:29:26.423Z,2.42
2018-06-13T14:31:55.546Z,2.35
2018-06-13T14:34:24.627Z,2.20
2018-06-13T14:36:53.741Z,2.40
2018-06-13T14:39:22.847Z,2.12
2018-06-13T14:41:52.051Z,1.67
2018-06-13T14:44:21.179Z,2.10
2018-06-13T14:46:50.282Z,2.05
2018-06-13T14:49:19.404Z,2.33
2018-06-13T14:51:52.903Z,1.80
2018-06-13T14:54:22.047Z,2.35
2018-06-13T14:56:51.200Z,1.85
2018-06-13T14:59:20.320Z,2.00
2018-06-13T15:01:49.449Z,1.70
2018-06-13T15:04:25.699Z,1.70
2018-06-13T15:06:54.827Z,1.85
2018-06-13T15:09:23.923Z,1.70
2018-06-13T15:11:52.702Z,1.77
2018-06-13T15:14:21.679Z,1.72
2018-06-13T15:16:50.802Z,1.70
2018-06-13T15:19:19.911Z,2.40
2018-06-13T15:21:49.051Z,1.87
2018-06-13T15:24:18.143Z,1.65
2018-06-13T15:26:47.439Z,2.02
2018-06-13T15:29:16.704Z,1.65
2018-06-13T15:31:46.051Z,1.65
2018-06-13T15:34:15.279Z,1.92
2018-06-13T15:36:44.411Z,1.80
2018-06-13T15:39:15.016Z,1.70
2018-06-13T15:41:45.130Z,1.57
2018-06-13T15:44:14.365Z,1.90
2018-06-13T15:46:44.831Z,1.70
2018-06-13T15:49:13.983Z,2.10
2018-06-13T15:51:43.178Z,1.42
2018-06-13T15:54:12.296Z,2.12
2018-06-13T15:56:41.498Z,1.87
2018-06-13T15:59:10.663Z,1.72
2018-06-13T16:01:39.895Z,1.60
2018-06-13T16:04:10.068Z,2.15
2018-06-13T16:06:39.260Z,1.98
2018-06-13T16:09:10.024Z,1.95
2018-06-13T16:11:39.674Z,1.65
2018-06-13T16:14:10.018Z,1.70
2018-06-13T16:16:39.154Z,1.92
2018-06-13T16:19:08.591Z,1.62
2018-06-13T16:21:38.250Z,1.40
2018-06-13T16:24:07.564Z,1.60
2018-06-13T16:26:36.688Z,1.47
2018-06-13T16:29:06.106Z,1.80
2018-06-13T16:31:35.254Z,1.30
2018-06-13T16:34:04.454Z,1.40
2018-06-13T16:36:33.611Z,1.27
2018-06-13T16:39:02.695Z,1.22
2018-06-13T16:41:31.820Z,1.60
2018-06-13T16:44:00.938Z,1.70
2018-06-13T16:46:30.039Z,1.40
2018-06-13T16:48:59.148Z,1.50
2018-06-13T16:51:39.670Z,1.87
2018-06-13T16:54:13.585Z,1.30
2018-06-13T16:56:43.274Z,1.27
2018-06-13T16:59:12.375Z,1.22
2018-06-13T17:01:41.487Z,1.80
2018-06-13T17:04:10.718Z,1.50
2018-06-13T17:06:39.888Z,1.70
2018-06-13T17:09:09.019Z,1.30
2018-06-13T17:11:38.157Z,1.35
2018-06-13T17:14:07.452Z,1.47
2018-06-13T17:16:36.687Z,1.92
2018-06-13T17:19:05.829Z,1.52
2018-06-13T17:21:35.027Z,1.60
2018-06-13T17:24:04.239Z,1.45
2018-06-13T17:26:33.431Z,1.52
2018-06-13T17:29:02.564Z,1.70
2018-06-13T17:31:31.675Z,1.80
2018-06-13T17:34:00.410Z,1.65
2018-06-13T17:36:29.440Z,1.70
2018-06-13T17:38:58.663Z,1.62
2018-06-13T17:41:27.759Z,1.30
2018-06-13T17:43:56.872Z,1.55
2018-06-13T17:46:25.975Z,1.37
2018-06-13T17:48:55.231Z,1.47
2018-06-13T17:51:24.338Z,1.30
2018-06-13T17:53:53.106Z,1.50
2018-06-13T17:56:22.179Z,1.95
2018-06-13T17:58:51.310Z,1.60
2018-06-13T18:01:20.403Z,1.98
2018-06-13T18:03:49.530Z,1.62
2018-06-13T18:06:18.613Z,1.62
2018-06-13T18:08:47.799Z,1.40
2018-06-13T18:11:16.609Z,1.12
2018-06-13T18:13:45.647Z,1.40
2018-06-13T18:16:14.762Z,1.17
2018-06-13T18:18:43.903Z,1.50
2018-06-13T18:21:13.027Z,1.37
2018-06-13T18:23:42.175Z,1.60
2018-06-13T18:26:11.282Z,1.40
2018-06-13T18:28:40.414Z,1.62
2018-06-13T18:31:09.590Z,1.60
2018-06-13T18:33:38.718Z,1.35
2018-06-13T18:36:08.000Z,1.25
2018-06-13T18:38:37.135Z,1.95
2018-06-13T18:41:06.429Z,1.22
2018-06-13T18:43:35.678Z,2.02
2018-06-13T18:46:08.909Z,1.50
2018-06-13T18:48:38.286Z,1.72
2018-06-13T18:51:07.776Z,2.33
2018-06-13T18:53:36.999Z,1.37
2018-06-13T18:56:06.414Z,1.65
2018-06-13T18:58:35.667Z,1.55
2018-06-13T19:01:04.899Z,1.70
2018-06-13T19:03:34.075Z,1.40
2018-06-13T19:06:03.948Z,1.50
2018-06-13T19:08:33.074Z,1.67
2018-06-13T19:11:02.176Z,1.27
2018-06-13T19:13:31.281Z,1.67
2018-06-13T19:16:00.543Z,1.57
2018-06-13T19:18:29.711Z,1.70
2018-06-13T19:20:58.866Z,1.70
2018-06-13T19:23:28.122Z,1.70
2018-06-13T19:25:57.247Z,1.27
2018-06-13T19:28:26.446Z,1.32
2018-06-13T19:30:55.583Z,1.32
2018-06-13T19:33:24.797Z,1.77
2018-06-13T19:35:53.912Z,1.87
2018-06-13T19:38:23.014Z,1.40
2018-06-13T19:40:52.192Z,1.40
2018-06-13T19:43:26.368Z,1.32
2018-06-13T19:45:55.413Z,1.22
2018-06-13T19:48:29.586Z,1.62
2018-06-13T19:50:58.764Z,1.60
2018-06-13T19:53:33.401Z,1.50
2018-06-13T19:56:04.481Z,1.45
2018-06-13T19:58:34.449Z,1.47
2018-06-13T20:01:03.784Z,1.70
2018-06-13T20:03:38.083Z,1.57
2018-06-13T20:06:07.553Z,1.50
2018-06-13T20:08:36.970Z,1.52
2018-06-13T20:11:06.185Z,2.00
2018-06-13T20:13:40.483Z,1.65
2018-06-13T20:16:15.271Z,1.80
2018-06-13T20:18:49.848Z,1.40
2018-06-13T20:21:18.934Z,1.67
2018-06-13T20:23:48.032Z,1.70
2018-06-13T20:26:22.487Z,1.50
2018-06-13T20:28:56.856Z,1.65
2018-06-13T20:31:30.143Z,2.70
2018-06-13T20:34:00.229Z,1.70
2018-06-13T20:36:29.395Z,1.75
2018-06-13T20:38:58.664Z,2.20
2018-06-13T20:41:27.777Z,1.92
2018-06-13T20:43:56.927Z,1.65
2018-06-13T20:46:26.041Z,1.40
2018-06-13T20:48:55.261Z,1.42
2018-06-13T20:51:24.649Z,1.60
2018-06-13T20:53:53.748Z,1.75
2018-06-13T20:56:22.851Z,1.40
2018-06-13T20:58:52.146Z,1.85
2018-06-13T21:01:21.245Z,1.70
2018-06-13T21:03:50.350Z,1.70
2018-06-13T21:06:19.491Z,1.80
2018-06-13T21:08:48.619Z,1.50
2018-06-13T21:11:17.767Z,1.70
2018-06-13T21:13:46.903Z,1.80
2018-06-13T21:16:16.700Z,1.98
2018-06-13T21:18:45.652Z,1.87
2018-06-13T21:21:14.696Z,1.98
2018-06-13T21:23:43.924Z,2.02
2018-06-13T21:26:13.086Z,2.05
2018-06-13T21:28:42.232Z,1.80
2018-06-13T21:31:11.551Z,2.17
2018-06-13T21:33:40.677Z,1.70
2018-06-13T21:36:09.831Z,2.08
2018-06-13T21:38:38.968Z,1.65
2018-06-13T21:41:08.163Z,2.33
2018-06-13T21:43:37.327Z,1.82
2018-06-13T21:46:06.559Z,1.98
2018-06-13T21:48:35.696Z,1.60
2018-06-13T21:51:04.987Z,2.08
2018-06-13T21:53:34.267Z,1.90
2018-06-13T21:56:03.374Z,2.22
2018-06-13T21:58:32.485Z,1.80
2018-06-13T22:01:01.594Z,1.95
2018-06-13T22:03:30.683Z,1.92
2018-06-13T22:05:59.774Z,1.95
2018-06-13T22:08:28.912Z,2.50
2018-06-13T22:10:58.016Z,2.35
2018-06-13T22:13:27.085Z,2.00
2018-06-13T22:15:56.207Z,2.12
2018-06-13T22:18:25.361Z,1.75
2018-06-13T22:20:54.459Z,2.05
2018-06-13T22:23:23.566Z,2.12
2018-06-13T22:25:52.670Z,1.72
2018-06-13T22:28:21.770Z,2.05
2018-06-13T22:30:50.859Z,2.30
2018-06-13T22:33:20.930Z,1.90
2018-06-13T22:35:50.035Z,1.95
2018-06-13T22:38:19.215Z,1.90
2018-06-13T22:40:48.299Z,1.87
2018-06-13T22:43:17.434Z,2.00
2018-06-13T22:45:46.515Z,2.00
2018-06-13T22:48:20.148Z,2.10
2018-06-13T22:50:49.245Z,1.80
2018-06-13T22:53:18.346Z,2.02
2018-06-13T22:55:47.434Z,1.85
2018-06-13T22:58:16.578Z,2.30
2018-06-13T23:01:12.488Z,2.10
2018-06-13T23:03:41.599Z,2.05
2018-06-13T23:06:11.522Z,1.67
2018-06-13T23:08:40.615Z,2.10
2018-06-13T23:11:09.743Z,1.75
2018-06-13T23:13:38.871Z,2.00
2018-06-13T23:16:08.063Z,2.37
2018-06-13T23:18:37.185Z,1.75
2018-06-13T23:21:06.294Z,2.02
2018-06-13T23:23:35.572Z,2.47
2018-06-13T23:26:04.708Z,2.25
2018-06-13T23:28:33.823Z,2.40
2018-06-13T23:31:02.947Z,2.27
2018-06-13T23:33:32.076Z,1.90
2018-06-13T23:36:00.808Z,1.92
2018-06-13T23:38:29.807Z,2.20
2018-06-13T23:40:58.926Z,2.08
2018-06-13T23:43:27.997Z,2.10
2018-06-13T23:45:57.098Z,2.20
2018-06-13T23:48:26.171Z,2.30
2018-06-13T23:50:55.271Z,2.15
2018-06-13T23:53:24.356Z,2.25
2018-06-13T23:55:53.595Z,1.85
2018-06-13T23:58:22.675Z,2.30
